sensor_id;sensor_type;location;lat;lon;timestamp;P1;durP1;ratioP1;P2;durP2;ratioP2
42760;SDS011;31672;47.638;19.026;2022-08-19T00:04:43;7.95;;;5.88;;
42760;SDS011;31672;47.638;19.026;2022-08-19T00:09:48;11.00;;;6.32;;
42760;SDS011;31672;47.638;19.026;2022-08-19T00:14:51;8.80;;;5.78;;
42760;SDS011;31672;47.638;19.026;2022-08-19T00:19:56;6.72;;;5.30;;
42760;SDS011;31672;47.638;19.026;2022-08-19T00:24:59;8.95;;;5.32;;
42760;SDS011;31672;47.638;19.026;2022-08-19T00:30:04;7.85;;;5.68;;
42760;SDS011;31672;47.638;19.026;2022-08-19T00:35:09;8.25;;;5.93;;
42760;SDS011;31672;47.638;19.026;2022-08-19T00:40:12;8.27;;;5.82;;
42760;SDS011;31672;47.638;19.026;2022-08-19T00:45:20;7.18;;;6.10;;
42760;SDS011;31672;47.638;19.026;2022-08-19T00:50:27;8.20;;;5.88;;
42760;SDS011;31672;47.638;19.026;2022-08-19T00:55:32;7.78;;;6.40;;
42760;SDS011;31672;47.638;19.026;2022-08-19T01:00:35;8.27;;;5.72;;
42760;SDS011;31672;47.638;19.026;2022-08-19T01:05:39;8.23;;;6.13;;
42760;SDS011;31672;47.638;19.026;2022-08-19T01:10:47;6.82;;;6.00;;
42760;SDS011;31672;47.638;19.026;2022-08-19T01:15:58;8.38;;;6.00;;
42760;SDS011;31672;47.638;19.026;2022-08-19T01:21:54;7.47;;;6.28;;
42760;SDS011;31672;47.638;19.026;2022-08-19T01:31:54;7.28;;;5.68;;
42760;SDS011;31672;47.638;19.026;2022-08-19T01:36:57;7.70;;;6.90;;
42760;SDS011;31672;47.638;19.026;2022-08-19T01:42:00;7.60;;;6.43;;
42760;SDS011;31672;47.638;19.026;2022-08-19T01:47:05;8.20;;;6.90;;
42760;SDS011;31672;47.638;19.026;2022-08-19T01:52:09;8.90;;;6.85;;
42760;SDS011;31672;47.638;19.026;2022-08-19T01:57:12;7.80;;;7.00;;
42760;SDS011;31672;47.638;19.026;2022-08-19T02:02:16;9.55;;;6.80;;
42760;SDS011;31672;47.638;19.026;2022-08-19T02:07:20;7.75;;;7.05;;
42760;SDS011;31672;47.638;19.026;2022-08-19T02:12:23;7.63;;;6.13;;
42760;SDS011;31672;47.638;19.026;2022-08-19T02:17:26;8.85;;;7.13;;
42760;SDS011;31672;47.638;19.026;2022-08-19T02:22:30;7.18;;;6.47;;
42760;SDS011;31672;47.638;19.026;2022-08-19T02:27:34;8.60;;;6.38;;
42760;SDS011;31672;47.638;19.026;2022-08-19T02:32:37;8.27;;;7.13;;
42760;SDS011;31672;47.638;19.026;2022-08-19T02:37:46;9.35;;;7.03;;
42760;SDS011;31672;47.638;19.026;2022-08-19T02:43:08;12.88;;;6.53;;
42760;SDS011;31672;47.638;19.026;2022-08-19T02:48:11;7.72;;;6.93;;
42760;SDS011;31672;47.638;19.026;2022-08-19T02:53:24;7.70;;;6.70;;
42760;SDS011;31672;47.638;19.026;2022-08-19T02:58:29;8.10;;;6.65;;
42760;SDS011;31672;47.638;19.026;2022-08-19T03:03:32;8.45;;;6.93;;
42760;SDS011;31672;47.638;19.026;2022-08-19T03:08:36;7.18;;;6.47;;
42760;SDS011;31672;47.638;19.026;2022-08-19T03:13:40;8.98;;;6.85;;
42760;SDS011;31672;47.638;19.026;2022-08-19T03:18:45;7.85;;;7.05;;
42760;SDS011;31672;47.638;19.026;2022-08-19T03:23:54;8.95;;;7.10;;
42760;SDS011;31672;47.638;19.026;2022-08-19T03:29:03;9.55;;;8.02;;
42760;SDS011;31672;47.638;19.026;2022-08-19T03:34:10;7.90;;;7.10;;
42760;SDS011;31672;47.638;19.026;2022-08-19T03:39:15;9.88;;;7.28;;
42760;SDS011;31672;47.638;19.026;2022-08-19T03:44:20;11.68;;;7.57;;
42760;SDS011;31672;47.638;19.026;2022-08-19T03:49:25;11.00;;;6.65;;
42760;SDS011;31672;47.638;19.026;2022-08-19T03:54:31;9.10;;;7.03;;
42760;SDS011;31672;47.638;19.026;2022-08-19T03:59:35;10.63;;;7.57;;
42760;SDS011;31672;47.638;19.026;2022-08-19T04:04:40;14.70;;;11.15;;
42760;SDS011;31672;47.638;19.026;2022-08-19T04:09:45;11.75;;;8.07;;
42760;SDS011;31672;47.638;19.026;2022-08-19T04:14:48;7.80;;;6.53;;
42760;SDS011;31672;47.638;19.026;2022-08-19T04:19:51;12.40;;;8.15;;
42760;SDS011;31672;47.638;19.026;2022-08-19T04:24:57;10.10;;;6.93;;
42760;SDS011;31672;47.638;19.026;2022-08-19T04:29:59;12.82;;;7.20;;
42760;SDS011;31672;47.638;19.026;2022-08-19T04:35:03;7.82;;;6.90;;
42760;SDS011;31672;47.638;19.026;2022-08-19T04:40:19;8.45;;;6.32;;
42760;SDS011;31672;47.638;19.026;2022-08-19T04:45:42;7.88;;;6.90;;
42760;SDS011;31672;47.638;19.026;2022-08-19T04:50:46;8.98;;;7.50;;
42760;SDS011;31672;47.638;19.026;2022-08-19T04:55:50;8.55;;;6.88;;
42760;SDS011;31672;47.638;19.026;2022-08-19T05:00:53;12.98;;;7.38;;
42760;SDS011;31672;47.638;19.026;2022-08-19T05:05:56;13.48;;;7.40;;
42760;SDS011;31672;47.638;19.026;2022-08-19T05:11:00;11.63;;;8.15;;
42760;SDS011;31672;47.638;19.026;2022-08-19T05:16:03;10.25;;;7.15;;
42760;SDS011;31672;47.638;19.026;2022-08-19T05:21:10;10.98;;;7.85;;
42760;SDS011;31672;47.638;19.026;2022-08-19T05:26:38;8.57;;;7.15;;
42760;SDS011;31672;47.638;19.026;2022-08-19T05:31:45;8.45;;;7.55;;
42760;SDS011;31672;47.638;19.026;2022-08-19T05:36:55;7.40;;;6.32;;
42760;SDS011;31672;47.638;19.026;2022-08-19T05:42:02;8.05;;;6.13;;
42760;SDS011;31672;47.638;19.026;2022-08-19T05:47:09;8.23;;;6.10;;
42760;SDS011;31672;47.638;19.026;2022-08-19T05:52:17;9.00;;;6.22;;
42760;SDS011;31672;47.638;19.026;2022-08-19T05:57:27;8.38;;;6.45;;
42760;SDS011;31672;47.638;19.026;2022-08-19T06:02:31;9.40;;;6.35;;
42760;SDS011;31672;47.638;19.026;2022-08-19T06:07:37;7.88;;;6.28;;
42760;SDS011;31672;47.638;19.026;2022-08-19T06:12:41;8.45;;;5.88;;
42760;SDS011;31672;47.638;19.026;2022-08-19T06:17:44;6.90;;;5.38;;
42760;SDS011;31672;47.638;19.026;2022-08-19T06:22:48;8.98;;;5.43;;
42760;SDS011;31672;47.638;19.026;2022-08-19T06:27:53;11.93;;;6.15;;
42760;SDS011;31672;47.638;19.026;2022-08-19T06:33:16;6.50;;;5.53;;
42760;SDS011;31672;47.638;19.026;2022-08-19T06:38:19;6.38;;;5.68;;
42760;SDS011;31672;47.638;19.026;2022-08-19T06:43:25;7.55;;;5.53;;
42760;SDS011;31672;47.638;19.026;2022-08-19T06:48:30;7.38;;;5.47;;
42760;SDS011;31672;47.638;19.026;2022-08-19T06:53:38;6.40;;;5.37;;
42760;SDS011;31672;47.638;19.026;2022-08-19T06:58:41;8.75;;;5.85;;
42760;SDS011;31672;47.638;19.026;2022-08-19T07:03:45;7.75;;;5.90;;
42760;SDS011;31672;47.638;19.026;2022-08-19T07:08:49;6.93;;;5.43;;
42760;SDS011;31672;47.638;19.026;2022-08-19T07:13:57;7.68;;;6.10;;
42760;SDS011;31672;47.638;19.026;2022-08-19T07:19:01;56.55;;;7.93;;
42760;SDS011;31672;47.638;19.026;2022-08-19T07:24:17;20.00;;;6.80;;
42760;SDS011;31672;47.638;19.026;2022-08-19T07:29:21;21.48;;;6.90;;
42760;SDS011;31672;47.638;19.026;2022-08-19T07:34:29;29.57;;;7.37;;
42760;SDS011;31672;47.638;19.026;2022-08-19T07:39:40;65.72;;;9.82;;
42760;SDS011;31672;47.638;19.026;2022-08-19T07:44:44;32.35;;;7.43;;
42760;SDS011;31672;47.638;19.026;2022-08-19T07:49:51;19.70;;;5.97;;
42760;SDS011;31672;47.638;19.026;2022-08-19T07:54:54;24.13;;;6.15;;
42760;SDS011;31672;47.638;19.026;2022-08-19T07:59:57;69.85;;;8.90;;
42760;SDS011;31672;47.638;19.026;2022-08-19T08:05:00;37.38;;;7.38;;
42760;SDS011;31672;47.638;19.026;2022-08-19T08:10:22;31.20;;;7.43;;
42760;SDS011;31672;47.638;19.026;2022-08-19T08:15:25;8.15;;;5.50;;
42760;SDS011;31672;47.638;19.026;2022-08-19T08:20:30;132.63;;;13.48;;
42760;SDS011;31672;47.638;19.026;2022-08-19T08:25:33;22.42;;;4.78;;
42760;SDS011;31672;47.638;19.026;2022-08-19T08:30:38;12.15;;;5.55;;
42760;SDS011;31672;47.638;19.026;2022-08-19T08:35:46;8.10;;;4.72;;
42760;SDS011;31672;47.638;19.026;2022-08-19T08:40:50;9.82;;;4.70;;
42760;SDS011;31672;47.638;19.026;2022-08-19T08:46:09;11.43;;;5.20;;
42760;SDS011;31672;47.638;19.026;2022-08-19T08:51:47;52.55;;;8.95;;
42760;SDS011;31672;47.638;19.026;2022-08-19T08:57:15;129.52;;;12.32;;
42760;SDS011;31672;47.638;19.026;2022-08-19T09:02:31;14.80;;;5.07;;
42760;SDS011;31672;47.638;19.026;2022-08-19T09:07:39;15.90;;;5.00;;
42760;SDS011;31672;47.638;19.026;2022-08-19T09:18:20;5.07;;;4.45;;
42760;SDS011;31672;47.638;19.026;2022-08-19T09:23:23;34.38;;;6.47;;
42760;SDS011;31672;47.638;19.026;2022-08-19T09:28:30;32.25;;;6.20;;
42760;SDS011;31672;47.638;19.026;2022-08-19T09:33:34;21.73;;;5.10;;
42760;SDS011;31672;47.638;19.026;2022-08-19T09:38:37;231.10;;;19.48;;
42760;SDS011;31672;47.638;19.026;2022-08-19T09:43:46;16.83;;;4.70;;
42760;SDS011;31672;47.638;19.026;2022-08-19T09:48:54;21.48;;;4.72;;
42760;SDS011;31672;47.638;19.026;2022-08-19T09:54:07;5.30;;;4.03;;
42760;SDS011;31672;47.638;19.026;2022-08-19T09:59:12;8.55;;;3.72;;
42760;SDS011;31672;47.638;19.026;2022-08-19T10:04:15;6.78;;;4.40;;
42760;SDS011;31672;47.638;19.026;2022-08-19T10:09:23;6.50;;;4.20;;
42760;SDS011;31672;47.638;19.026;2022-08-19T10:14:35;9.32;;;4.13;;
42760;SDS011;31672;47.638;19.026;2022-08-19T10:19:40;8.57;;;4.22;;
42760;SDS011;31672;47.638;19.026;2022-08-19T10:24:56;6.60;;;3.53;;
42760;SDS011;31672;47.638;19.026;2022-08-19T10:29:59;4.65;;;3.97;;
42760;SDS011;31672;47.638;19.026;2022-08-19T10:35:04;8.25;;;3.72;;
42760;SDS011;31672;47.638;19.026;2022-08-19T10:40:10;5.82;;;4.13;;
42760;SDS011;31672;47.638;19.026;2022-08-19T10:45:13;10.80;;;3.80;;
42760;SDS011;31672;47.638;19.026;2022-08-19T10:50:16;7.22;;;4.40;;
42760;SDS011;31672;47.638;19.026;2022-08-19T10:55:39;5.38;;;3.40;;
42760;SDS011;31672;47.638;19.026;2022-08-19T11:01:00;10.55;;;4.47;;
42760;SDS011;31672;47.638;19.026;2022-08-19T11:06:04;7.50;;;3.25;;
42760;SDS011;31672;47.638;19.026;2022-08-19T11:11:10;6.75;;;3.55;;
42760;SDS011;31672;47.638;19.026;2022-08-19T11:16:16;6.50;;;3.88;;
42760;SDS011;31672;47.638;19.026;2022-08-19T11:21:26;4.53;;;3.67;;
42760;SDS011;31672;47.638;19.026;2022-08-19T11:26:35;8.00;;;3.70;;
42760;SDS011;31672;47.638;19.026;2022-08-19T11:31:42;10.38;;;4.07;;
42760;SDS011;31672;47.638;19.026;2022-08-19T11:36:50;6.75;;;3.78;;
42760;SDS011;31672;47.638;19.026;2022-08-19T11:41:54;6.97;;;3.53;;
42760;SDS011;31672;47.638;19.026;2022-08-19T11:46:59;6.43;;;3.90;;
42760;SDS011;31672;47.638;19.026;2022-08-19T11:52:10;6.03;;;3.45;;
42760;SDS011;31672;47.638;19.026;2022-08-19T11:57:13;5.18;;;3.50;;
42760;SDS011;31672;47.638;19.026;2022-08-19T12:02:18;6.32;;;4.05;;
42760;SDS011;31672;47.638;19.026;2022-08-19T12:07:21;5.60;;;3.58;;
42760;SDS011;31672;47.638;19.026;2022-08-19T12:12:24;8.10;;;4.78;;
42760;SDS011;31672;47.638;19.026;2022-08-19T12:17:28;6.97;;;4.45;;
42760;SDS011;31672;47.638;19.026;2022-08-19T12:22:32;7.20;;;4.40;;
42760;SDS011;31672;47.638;19.026;2022-08-19T12:27:37;7.70;;;3.92;;
42760;SDS011;31672;47.638;19.026;2022-08-19T12:32:43;6.47;;;4.10;;
42760;SDS011;31672;47.638;19.026;2022-08-19T12:37:47;10.15;;;3.55;;
42760;SDS011;31672;47.638;19.026;2022-08-19T12:42:58;5.85;;;3.50;;
42760;SDS011;31672;47.638;19.026;2022-08-19T12:48:01;5.60;;;4.93;;
42760;SDS011;31672;47.638;19.026;2022-08-19T12:53:24;5.22;;;4.18;;
42760;SDS011;31672;47.638;19.026;2022-08-19T12:58:28;6.47;;;4.35;;
42760;SDS011;31672;47.638;19.026;2022-08-19T13:03:31;11.00;;;5.10;;
42760;SDS011;31672;47.638;19.026;2022-08-19T13:08:39;6.88;;;5.07;;
42760;SDS011;31672;47.638;19.026;2022-08-19T13:13:45;9.40;;;5.88;;
42760;SDS011;31672;47.638;19.026;2022-08-19T13:18:50;7.97;;;6.53;;
42760;SDS011;31672;47.638;19.026;2022-08-19T13:23:53;13.75;;;6.65;;
42760;SDS011;31672;47.638;19.026;2022-08-19T13:28:56;15.05;;;7.30;;
42760;SDS011;31672;47.638;19.026;2022-08-19T13:34:19;9.15;;;6.63;;
42760;SDS011;31672;47.638;19.026;2022-08-19T13:39:36;10.25;;;6.82;;
42760;SDS011;31672;47.638;19.026;2022-08-19T13:44:39;11.27;;;7.15;;
42760;SDS011;31672;47.638;19.026;2022-08-19T13:49:42;10.00;;;7.10;;
42760;SDS011;31672;47.638;19.026;2022-08-19T13:54:45;10.10;;;7.50;;
42760;SDS011;31672;47.638;19.026;2022-08-19T13:59:50;12.45;;;7.32;;
42760;SDS011;31672;47.638;19.026;2022-08-19T14:04:53;17.58;;;4.20;;
42760;SDS011;31672;47.638;19.026;2022-08-19T14:09:56;14.07;;;3.40;;
42760;SDS011;31672;47.638;19.026;2022-08-19T14:14:59;15.43;;;3.78;;
42760;SDS011;31672;47.638;19.026;2022-08-19T14:20:05;12.35;;;3.50;;
42760;SDS011;31672;47.638;19.026;2022-08-19T14:25:13;12.25;;;3.90;;
42760;SDS011;31672;47.638;19.026;2022-08-19T14:30:27;8.50;;;3.35;;
42760;SDS011;31672;47.638;19.026;2022-08-19T14:35:34;9.40;;;3.30;;
42760;SDS011;31672;47.638;19.026;2022-08-19T14:40:38;8.90;;;3.20;;
42760;SDS011;31672;47.638;19.026;2022-08-19T14:45:42;9.15;;;3.38;;
42760;SDS011;31672;47.638;19.026;2022-08-19T14:50:45;10.70;;;3.17;;
42760;SDS011;31672;47.638;19.026;2022-08-19T14:55:48;11.45;;;3.13;;
42760;SDS011;31672;47.638;19.026;2022-08-19T15:00:52;5.57;;;2.75;;
42760;SDS011;31672;47.638;19.026;2022-08-19T15:05:55;12.20;;;2.95;;
42760;SDS011;31672;47.638;19.026;2022-08-19T15:11:00;9.98;;;2.60;;
42760;SDS011;31672;47.638;19.026;2022-08-19T15:16:03;12.63;;;3.00;;
42760;SDS011;31672;47.638;19.026;2022-08-19T15:21:16;8.15;;;3.53;;
42760;SDS011;31672;47.638;19.026;2022-08-19T15:26:28;10.77;;;3.83;;
42760;SDS011;31672;47.638;19.026;2022-08-19T15:31:34;7.15;;;2.15;;
42760;SDS011;31672;47.638;19.026;2022-08-19T15:36:39;5.82;;;1.88;;
42760;SDS011;31672;47.638;19.026;2022-08-19T15:41:43;10.40;;;2.65;;
42760;SDS011;31672;47.638;19.026;2022-08-19T15:46:48;9.52;;;3.22;;
42760;SDS011;31672;47.638;19.026;2022-08-19T15:51:51;9.70;;;2.63;;
42760;SDS011;31672;47.638;19.026;2022-08-19T15:56:55;12.77;;;2.33;;
42760;SDS011;31672;47.638;19.026;2022-08-19T16:02:17;6.90;;;2.10;;
42760;SDS011;31672;47.638;19.026;2022-08-19T16:07:40;11.35;;;3.13;;
42760;SDS011;31672;47.638;19.026;2022-08-19T16:12:44;11.57;;;2.10;;
42760;SDS011;31672;47.638;19.026;2022-08-19T16:17:47;12.98;;;2.67;;
42760;SDS011;31672;47.638;19.026;2022-08-19T16:22:58;10.07;;;2.40;;
42760;SDS011;31672;47.638;19.026;2022-08-19T16:28:01;9.10;;;2.58;;
42760;SDS011;31672;47.638;19.026;2022-08-19T16:33:09;7.60;;;2.00;;
42760;SDS011;31672;47.638;19.026;2022-08-19T16:38:12;12.25;;;2.65;;
42760;SDS011;31672;47.638;19.026;2022-08-19T16:43:15;8.10;;;1.95;;
42760;SDS011;31672;47.638;19.026;2022-08-19T16:48:18;11.52;;;2.40;;
42760;SDS011;31672;47.638;19.026;2022-08-19T16:53:27;8.15;;;2.30;;
42760;SDS011;31672;47.638;19.026;2022-08-19T16:58:33;10.65;;;2.97;;
42760;SDS011;31672;47.638;19.026;2022-08-19T17:03:37;11.15;;;2.60;;
42760;SDS011;31672;47.638;19.026;2022-08-19T17:08:41;10.38;;;2.38;;
42760;SDS011;31672;47.638;19.026;2022-08-19T17:13:50;10.95;;;2.72;;
42760;SDS011;31672;47.638;19.026;2022-08-19T17:18:54;11.48;;;2.50;;
42760;SDS011;31672;47.638;19.026;2022-08-19T17:24:01;10.77;;;2.30;;
42760;SDS011;31672;47.638;19.026;2022-08-19T17:29:07;10.63;;;2.65;;
42760;SDS011;31672;47.638;19.026;2022-08-19T17:34:10;9.73;;;2.47;;
42760;SDS011;31672;47.638;19.026;2022-08-19T17:39:13;10.48;;;2.33;;
42760;SDS011;31672;47.638;19.026;2022-08-19T17:44:17;8.73;;;2.35;;
42760;SDS011;31672;47.638;19.026;2022-08-19T17:49:20;8.32;;;2.63;;
42760;SDS011;31672;47.638;19.026;2022-08-19T17:54:23;9.00;;;3.00;;
42760;SDS011;31672;47.638;19.026;2022-08-19T17:59:34;10.65;;;3.05;;
42760;SDS011;31672;47.638;19.026;2022-08-19T18:04:38;7.53;;;2.63;;
42760;SDS011;31672;47.638;19.026;2022-08-19T18:09:43;13.05;;;3.47;;
42760;SDS011;31672;47.638;19.026;2022-08-19T18:14:53;9.85;;;3.00;;
42760;SDS011;31672;47.638;19.026;2022-08-19T18:19:56;7.70;;;2.45;;
42760;SDS011;31672;47.638;19.026;2022-08-19T18:25:00;10.55;;;2.83;;
42760;SDS011;31672;47.638;19.026;2022-08-19T18:30:26;11.60;;;3.00;;
42760;SDS011;31672;47.638;19.026;2022-08-19T18:35:34;11.35;;;3.47;;
42760;SDS011;31672;47.638;19.026;2022-08-19T18:40:40;9.60;;;2.03;;
42760;SDS011;31672;47.638;19.026;2022-08-19T18:46:01;6.22;;;2.35;;
42760;SDS011;31672;47.638;19.026;2022-08-19T18:51:24;9.77;;;2.50;;
42760;SDS011;31672;47.638;19.026;2022-08-19T18:56:31;12.43;;;2.95;;
42760;SDS011;31672;47.638;19.026;2022-08-19T19:01:34;11.95;;;3.20;;
42760;SDS011;31672;47.638;19.026;2022-08-19T19:06:40;8.75;;;2.80;;
42760;SDS011;31672;47.638;19.026;2022-08-19T19:11:45;13.50;;;3.70;;
42760;SDS011;31672;47.638;19.026;2022-08-19T19:16:52;5.30;;;2.65;;
42760;SDS011;31672;47.638;19.026;2022-08-19T19:21:56;12.05;;;2.67;;
42760;SDS011;31672;47.638;19.026;2022-08-19T19:27:00;8.48;;;2.35;;
42760;SDS011;31672;47.638;19.026;2022-08-19T19:32:14;9.13;;;2.30;;
42760;SDS011;31672;47.638;19.026;2022-08-19T19:37:30;10.43;;;2.55;;
42760;SDS011;31672;47.638;19.026;2022-08-19T19:42:34;11.57;;;2.63;;
42760;SDS011;31672;47.638;19.026;2022-08-19T19:47:37;8.65;;;2.50;;
42760;SDS011;31672;47.638;19.026;2022-08-19T19:52:41;12.63;;;2.88;;
42760;SDS011;31672;47.638;19.026;2022-08-19T19:57:49;9.88;;;3.35;;
42760;SDS011;31672;47.638;19.026;2022-08-19T20:02:53;7.55;;;3.00;;
42760;SDS011;31672;47.638;19.026;2022-08-19T20:07:57;8.48;;;3.00;;
42760;SDS011;31672;47.638;19.026;2022-08-19T20:13:19;13.07;;;3.25;;
42760;SDS011;31672;47.638;19.026;2022-08-19T20:18:23;14.43;;;4.13;;
42760;SDS011;31672;47.638;19.026;2022-08-19T20:23:26;9.85;;;2.67;;
42760;SDS011;31672;47.638;19.026;2022-08-19T20:28:29;18.15;;;4.18;;
42760;SDS011;31672;47.638;19.026;2022-08-19T20:33:33;12.57;;;4.00;;
42760;SDS011;31672;47.638;19.026;2022-08-19T20:38:36;9.32;;;4.30;;
42760;SDS011;31672;47.638;19.026;2022-08-19T20:43:42;14.80;;;6.18;;
42760;SDS011;31672;47.638;19.026;2022-08-19T20:48:45;16.80;;;6.72;;
42760;SDS011;31672;47.638;19.026;2022-08-19T20:53:48;13.52;;;5.97;;
42760;SDS011;31672;47.638;19.026;2022-08-19T20:58:51;14.13;;;7.25;;
42760;SDS011;31672;47.638;19.026;2022-08-19T21:04:00;12.50;;;6.67;;
42760;SDS011;31672;47.638;19.026;2022-08-19T21:09:04;12.73;;;7.50;;
42760;SDS011;31672;47.638;19.026;2022-08-19T21:14:07;14.95;;;7.50;;
42760;SDS011;31672;47.638;19.026;2022-08-19T21:19:10;10.90;;;7.95;;
42760;SDS011;31672;47.638;19.026;2022-08-19T21:24:13;12.80;;;8.10;;
42760;SDS011;31672;47.638;19.026;2022-08-19T21:29:16;11.07;;;7.30;;
42760;SDS011;31672;47.638;19.026;2022-08-19T21:34:19;12.95;;;8.38;;
42760;SDS011;31672;47.638;19.026;2022-08-19T21:39:22;14.55;;;9.63;;
42760;SDS011;31672;47.638;19.026;2022-08-19T21:44:25;13.13;;;8.73;;
42760;SDS011;31672;47.638;19.026;2022-08-19T21:49:29;15.90;;;9.27;;
42760;SDS011;31672;47.638;19.026;2022-08-19T21:54:35;13.75;;;10.20;;
42760;SDS011;31672;47.638;19.026;2022-08-19T21:59:39;14.75;;;10.20;;
42760;SDS011;31672;47.638;19.026;2022-08-19T22:04:45;15.70;;;9.40;;
42760;SDS011;31672;47.638;19.026;2022-08-19T22:09:49;12.38;;;9.02;;
42760;SDS011;31672;47.638;19.026;2022-08-19T22:14:53;13.30;;;9.30;;
42760;SDS011;31672;47.638;19.026;2022-08-19T22:19:57;11.88;;;9.50;;
42760;SDS011;31672;47.638;19.026;2022-08-19T22:25:03;13.68;;;10.05;;
42760;SDS011;31672;47.638;19.026;2022-08-19T22:30:33;16.70;;;10.00;;
42760;SDS011;31672;47.638;19.026;2022-08-19T22:35:40;12.55;;;9.90;;
42760;SDS011;31672;47.638;19.026;2022-08-19T22:40:46;13.70;;;10.93;;
42760;SDS011;31672;47.638;19.026;2022-08-19T22:45:52;11.68;;;10.00;;
42760;SDS011;31672;47.638;19.026;2022-08-19T22:50:58;13.80;;;9.82;;
42760;SDS011;31672;47.638;19.026;2022-08-19T22:56:20;15.10;;;9.93;;
42760;SDS011;31672;47.638;19.026;2022-08-19T23:01:23;14.10;;;11.20;;
42760;SDS011;31672;47.638;19.026;2022-08-19T23:06:31;13.25;;;10.02;;
42760;SDS011;31672;47.638;19.026;2022-08-19T23:11:39;12.60;;;9.82;;
42760;SDS011;31672;47.638;19.026;2022-08-19T23:16:43;15.57;;;10.07;;
42760;SDS011;31672;47.638;19.026;2022-08-19T23:21:52;12.40;;;9.10;;
42760;SDS011;31672;47.638;19.026;2022-08-19T23:26:55;12.13;;;7.70;;
42760;SDS011;31672;47.638;19.026;2022-08-19T23:32:17;7.40;;;6.60;;
42760;SDS011;31672;47.638;19.026;2022-08-19T23:37:21;10.27;;;7.50;;
42760;SDS011;31672;47.638;19.026;2022-08-19T23:42:26;14.23;;;7.63;;
42760;SDS011;31672;47.638;19.026;2022-08-19T23:47:29;10.20;;;6.57;;
42760;SDS011;31672;47.638;19.026;2022-08-19T23:52:41;10.63;;;5.82;;
42760;SDS011;31672;47.638;19.026;2022-08-19T23:57:45;11.70;;;5.95;;
